createdAt,value
2023-02-22T03:27:09.236Z,3.10
2023-02-22T03:29:38.894Z,2.85
2023-02-22T03:32:08.838Z,3.20
2023-02-22T03:34:40.677Z,2.55
2023-02-22T03:37:14.448Z,3.70
2023-02-22T03:39:42.864Z,2.88
2023-02-22T03:42:14.817Z,2.97
2023-02-22T03:44:44.472Z,5.47
2023-02-22T03:47:13.651Z,3.05
2023-02-22T03:49:43.849Z,3.03
2023-02-22T03:52:12.739Z,2.78
2023-02-22T03:54:40.513Z,3.20
2023-02-22T03:57:09.672Z,2.67
2023-02-22T03:59:38.716Z,2.53
2023-02-22T04:02:06.361Z,2.67
2023-02-22T04:04:33.931Z,3.13
2023-02-22T04:07:01.480Z,2.92
2023-02-22T04:09:28.970Z,3.50
2023-02-22T04:11:56.421Z,2.97
2023-02-22T04:14:24.051Z,4.75
2023-02-22T04:16:52.939Z,2.95
2023-02-22T04:19:20.413Z,2.83
2023-02-22T04:21:47.957Z,2.55
2023-02-22T04:24:15.674Z,3.28
2023-02-22T04:26:43.192Z,2.83
2023-02-22T04:29:10.621Z,2.42
2023-02-22T04:31:38.184Z,3.03
2023-02-22T04:34:07.107Z,3.42
2023-02-22T04:36:34.654Z,2.70
2023-02-22T04:39:02.419Z,2.80
2023-02-22T04:41:31.466Z,3.30
2023-02-22T04:43:59.034Z,2.97
2023-02-22T04:46:26.600Z,2.88
2023-02-22T04:48:54.201Z,2.70
2023-02-22T04:51:23.144Z,3.85
2023-02-22T04:53:50.753Z,3.33
2023-02-22T04:56:18.304Z,4.47
2023-02-22T04:58:45.812Z,3.47
2023-02-22T05:01:13.345Z,2.90
2023-02-22T05:03:40.869Z,3.55
2023-02-22T05:06:08.602Z,2.97
2023-02-22T05:08:37.502Z,3.33
2023-02-22T05:11:05.354Z,2.80
2023-02-22T05:13:32.830Z,3.28
2023-02-22T05:16:00.341Z,3.40
2023-02-22T05:18:27.870Z,3.45
2023-02-22T05:20:55.385Z,3.22
2023-02-22T05:23:22.841Z,2.65
2023-02-22T05:25:51.785Z,3.20
2023-02-22T05:28:19.284Z,3.00
2023-02-22T05:30:46.938Z,4.03
2023-02-22T05:33:14.522Z,2.47
2023-02-22T05:35:42.057Z,3.15
2023-02-22T05:38:11.232Z,2.70
2023-02-22T05:40:38.740Z,2.92
2023-02-22T05:43:07.576Z,2.78
2023-02-22T05:45:36.132Z,2.85
2023-02-22T05:48:03.833Z,2.92
2023-02-22T05:50:33.040Z,2.72
2023-02-22T05:53:00.615Z,3.67
2023-02-22T05:55:28.100Z,3.50
2023-02-22T05:57:55.664Z,2.78
2023-02-22T06:00:25.719Z,3.78
2023-02-22T06:02:56.599Z,3.55
2023-02-22T06:05:24.252Z,2.88
2023-02-22T06:07:52.214Z,2.95
2023-02-22T06:10:20.033Z,4.05
2023-02-22T06:12:47.647Z,3.50
2023-02-22T06:15:15.482Z,3.05
2023-02-22T06:17:44.363Z,2.67
2023-02-22T06:20:12.577Z,2.85
2023-02-22T06:22:41.095Z,3.10
2023-02-22T06:25:09.537Z,2.67
2023-02-22T06:27:39.742Z,3.53
2023-02-22T06:30:08.020Z,3.55
2023-02-22T06:32:35.528Z,2.88
2023-02-22T06:35:04.668Z,6.57
2023-02-22T06:37:32.182Z,3.22
2023-02-22T06:40:04.933Z,3.35
2023-02-22T06:42:32.863Z,3.95
2023-02-22T06:45:00.456Z,3.20
2023-02-22T06:47:27.940Z,3.28
2023-02-22T06:49:55.531Z,3.40
2023-02-22T06:52:24.807Z,3.42
2023-02-22T06:54:52.751Z,3.95
2023-02-22T06:57:20.627Z,7.10
2023-02-22T06:59:48.102Z,3.95
2023-02-22T07:02:15.811Z,4.13
2023-02-22T07:04:43.707Z,5.22
2023-02-22T07:07:11.426Z,3.75
2023-02-22T07:09:40.267Z,4.00
2023-02-22T07:12:08.121Z,3.67
2023-02-22T07:14:35.648Z,3.55
2023-02-22T07:17:03.267Z,4.70
2023-02-22T07:19:30.784Z,3.70
2023-02-22T07:21:59.229Z,3.35
2023-02-22T07:24:28.255Z,4.00
2023-02-22T07:26:57.072Z,3.80
2023-02-22T07:29:24.603Z,4.20
2023-02-22T07:31:52.153Z,3.40
2023-02-22T07:34:19.661Z,3.75
2023-02-22T07:36:47.153Z,3.67
2023-02-22T07:39:14.678Z,3.70
2023-02-22T07:41:42.176Z,3.75
2023-02-22T07:44:11.031Z,3.30
2023-02-22T07:46:38.598Z,3.28
2023-02-22T07:49:06.326Z,3.33
2023-02-22T07:51:33.830Z,3.28
2023-02-22T07:54:01.404Z,3.03
2023-02-22T07:56:28.922Z,2.83
2023-02-22T07:58:56.464Z,2.55
2023-02-22T08:01:25.392Z,3.30
2023-02-22T08:03:53.898Z,4.80
2023-02-22T08:06:25.626Z,2.85
2023-02-22T08:08:53.141Z,2.75
2023-02-22T08:11:20.619Z,2.70
2023-02-22T08:13:48.070Z,3.22
2023-02-22T08:16:15.550Z,3.47
2023-02-22T08:18:44.393Z,3.03
2023-02-22T08:21:11.878Z,3.53
2023-02-22T08:23:39.351Z,3.00
2023-02-22T08:26:07.592Z,3.28
2023-02-22T08:28:35.137Z,3.72
2023-02-22T08:31:03.273Z,2.72
2023-02-22T08:33:31.413Z,2.85
2023-02-22T08:36:01.582Z,2.97
2023-02-22T08:38:30.284Z,3.13
2023-02-22T08:40:58.064Z,2.95
2023-02-22T08:43:25.638Z,3.45
2023-02-22T08:45:56.163Z,3.17
2023-02-22T08:48:24.764Z,2.90
2023-02-22T08:50:52.233Z,6.20
2023-02-22T08:53:21.063Z,5.57
2023-02-22T08:55:49.678Z,4.03
2023-02-22T08:58:17.276Z,3.67
2023-02-22T09:00:45.613Z,3.40
2023-02-22T09:03:14.228Z,4.50
2023-02-22T09:05:42.103Z,2.90
2023-02-22T09:08:09.758Z,2.85
2023-02-22T09:10:38.665Z,2.90
2023-02-22T09:13:06.356Z,3.20
2023-02-22T09:15:35.773Z,3.28
2023-02-22T09:18:03.497Z,2.20
2023-02-22T09:20:31.008Z,2.30
2023-02-22T09:22:59.533Z,2.72
2023-02-22T09:25:27.161Z,2.75
2023-02-22T09:27:57.563Z,3.35
2023-02-22T09:30:27.369Z,2.53
2023-02-22T09:32:56.229Z,3.17
2023-02-22T09:35:27.248Z,2.75
2023-02-22T09:37:56.042Z,2.47
2023-02-22T09:40:29.854Z,2.92
2023-02-22T09:43:08.469Z,2.65
2023-02-22T09:45:39.891Z,3.35
2023-02-22T09:48:21.279Z,3.58
2023-02-22T09:50:50.839Z,2.80
2023-02-22T09:53:29.424Z,2.63
2023-02-22T09:55:58.015Z,2.97
2023-02-22T09:58:33.258Z,3.33
2023-02-22T10:01:05.939Z,2.92
2023-02-22T10:03:35.730Z,2.60
2023-02-22T10:06:05.714Z,2.88
2023-02-22T10:08:34.499Z,2.42
2023-02-22T10:11:06.262Z,3.08
2023-02-22T10:13:39.604Z,2.80
2023-02-22T10:16:11.918Z,3.42
2023-02-22T10:18:44.030Z,2.42
2023-02-22T10:21:17.256Z,2.45
2023-02-22T10:23:51.014Z,2.78
2023-02-22T10:26:21.162Z,2.42
2023-02-22T10:28:53.870Z,2.40
2023-02-22T10:31:24.313Z,3.42
2023-02-22T10:33:56.115Z,2.60
2023-02-22T10:36:24.997Z,2.92
2023-02-22T10:38:54.252Z,2.90
2023-02-22T10:41:24.786Z,2.63
2023-02-22T10:43:53.651Z,2.17
2023-02-22T10:46:22.281Z,2.67
2023-02-22T10:48:51.359Z,2.33
2023-02-22T10:51:18.898Z,2.20
2023-02-22T10:53:50.587Z,2.55
2023-02-22T10:56:21.118Z,3.72
2023-02-22T10:58:50.952Z,2.60
2023-02-22T11:01:21.039Z,2.17
2023-02-22T11:03:57.626Z,2.60
2023-02-22T11:06:25.353Z,2.40
2023-02-22T11:09:04.712Z,2.03
2023-02-22T11:11:32.233Z,2.03
2023-02-22T11:14:00.602Z,2.22
2023-02-22T11:16:32.238Z,2.38
2023-02-22T11:19:03.446Z,1.90
2023-02-22T11:21:31.553Z,2.10
2023-02-22T11:24:03.197Z,2.00
2023-02-22T11:26:37.703Z,2.65
2023-02-22T11:29:10.654Z,2.17
2023-02-22T11:31:43.812Z,2.55
2023-02-22T11:34:26.437Z,3.67
2023-02-22T11:36:54.007Z,2.63
2023-02-22T11:39:22.821Z,2.33
2023-02-22T11:41:50.514Z,2.20
2023-02-22T11:44:24.006Z,2.75
2023-02-22T11:46:55.635Z,2.10
2023-02-22T11:49:24.621Z,1.65
2023-02-22T11:52:03.435Z,2.70
2023-02-22T11:54:41.125Z,1.73
2023-02-22T11:57:16.412Z,3.40
2023-02-22T11:59:49.573Z,2.47
2023-02-22T12:02:31.915Z,1.63
2023-02-22T12:05:08.960Z,2.85
2023-02-22T12:07:42.970Z,2.22
2023-02-22T12:10:18.218Z,2.47
2023-02-22T12:12:52.417Z,2.10
2023-02-22T12:15:25.023Z,2.00
2023-02-22T12:18:00.787Z,1.92
2023-02-22T12:20:31.015Z,1.88
2023-02-22T12:23:02.074Z,2.08
2023-02-22T12:25:32.563Z,1.98
2023-02-22T12:28:01.596Z,1.65
2023-02-22T12:30:32.120Z,1.70
2023-02-22T12:33:01.816Z,1.70
2023-02-22T12:35:30.472Z,2.25
2023-02-22T12:38:01.713Z,2.63
2023-02-22T12:40:35.443Z,2.38
2023-02-22T12:43:05.727Z,2.38
2023-02-22T12:45:37.456Z,1.27
2023-02-22T12:48:21.541Z,1.60
2023-02-22T12:50:50.547Z,2.50
2023-02-22T12:53:20.609Z,2.15
2023-02-22T12:55:51.612Z,1.73
2023-02-22T12:58:21.803Z,1.88
2023-02-22T13:00:50.727Z,1.80
2023-02-22T13:03:28.385Z,2.08
2023-02-22T13:05:58.937Z,1.83
2023-02-22T13:08:30.513Z,1.77
2023-02-22T13:11:02.968Z,2.25
2023-02-22T13:13:35.378Z,2.03
2023-02-22T13:16:07.803Z,1.77
2023-02-22T13:18:39.930Z,2.10
2023-02-22T13:21:12.873Z,2.40
2023-02-22T13:23:44.324Z,1.80
2023-02-22T13:26:16.987Z,1.80
2023-02-22T13:28:46.639Z,1.67
2023-02-22T13:31:21.840Z,2.45
2023-02-22T13:34:01.051Z,1.88
2023-02-22T13:36:39.266Z,1.88
2023-02-22T13:39:15.033Z,1.55
2023-02-22T13:42:06.265Z,1.80
2023-02-22T13:44:52.653Z,1.50
2023-02-22T13:47:27.101Z,1.92
2023-02-22T13:50:08.968Z,1.67
2023-02-22T13:52:39.513Z,1.83
2023-02-22T13:55:11.222Z,2.20
2023-02-22T13:57:40.103Z,2.00
2023-02-22T14:00:22.753Z,1.60
2023-02-22T14:03:03.545Z,1.67
2023-02-22T14:05:49.637Z,2.10
2023-02-22T14:08:35.756Z,1.95
2023-02-22T14:11:05.769Z,1.75
2023-02-22T14:13:34.144Z,1.70
2023-02-22T14:16:19.138Z,2.15
2023-02-22T14:18:49.319Z,2.00
2023-02-22T14:21:19.210Z,1.95
2023-02-22T14:23:47.839Z,1.50
2023-02-22T14:26:17.684Z,1.60
2023-02-22T14:29:02.984Z,1.88
2023-02-22T14:31:36.983Z,2.25
2023-02-22T14:34:10.038Z,1.98
2023-02-22T14:36:42.810Z,2.25
2023-02-22T14:39:13.602Z,1.80
2023-02-22T14:41:43.984Z,1.73
2023-02-22T14:44:12.868Z,2.35
2023-02-22T14:46:42.581Z,1.50
2023-02-22T14:49:18.957Z,1.60
2023-02-22T14:51:54.125Z,1.70
2023-02-22T14:54:26.590Z,2.25
2023-02-22T14:56:56.629Z,2.13
2023-02-22T14:59:25.765Z,1.50
2023-02-22T15:02:11.323Z,1.48
2023-02-22T15:04:43.693Z,1.98
2023-02-22T15:07:20.953Z,2.33
2023-02-22T15:09:48.469Z,2.03
2023-02-22T15:12:22.129Z,2.25
2023-02-22T15:14:50.991Z,1.55
2023-02-22T15:17:20.205Z,2.03
2023-02-22T15:19:48.520Z,2.05
2023-02-22T15:22:21.789Z,2.35
2023-02-22T15:24:58.812Z,1.75
2023-02-22T15:27:26.753Z,1.95
2023-02-22T15:29:58.795Z,1.80
2023-02-22T15:32:30.859Z,1.65
2023-02-22T15:35:07.160Z,2.53
2023-02-22T15:37:35.971Z,1.95
2023-02-22T15:40:14.484Z,1.70
2023-02-22T15:42:49.081Z,2.03
2023-02-22T15:45:17.904Z,1.73
2023-02-22T15:47:45.504Z,1.85
2023-02-22T15:50:17.494Z,1.40
2023-02-22T15:52:52.989Z,2.25
2023-02-22T15:55:20.780Z,1.73
2023-02-22T15:57:48.344Z,1.55
2023-02-22T16:00:20.086Z,1.67
2023-02-22T16:02:48.866Z,1.95
2023-02-22T16:05:18.362Z,1.95
2023-02-22T16:07:48.246Z,2.70
2023-02-22T16:10:27.932Z,1.58
2023-02-22T16:13:06.550Z,1.65
2023-02-22T16:15:34.441Z,1.80
2023-02-22T16:18:16.788Z,1.95
2023-02-22T16:20:44.372Z,1.88
2023-02-22T16:23:25.089Z,1.60
2023-02-22T16:26:04.625Z,2.50
2023-02-22T16:28:35.418Z,2.08
2023-02-22T16:31:03.697Z,1.73
2023-02-22T16:33:33.669Z,2.17
2023-02-22T16:36:05.580Z,1.98
2023-02-22T16:38:33.806Z,1.70
2023-02-22T16:41:01.378Z,1.73
2023-02-22T16:43:32.622Z,2.03
2023-02-22T16:46:01.519Z,2.10
2023-02-22T16:48:30.357Z,1.83
2023-02-22T16:51:00.857Z,1.63
2023-02-22T16:53:29.286Z,1.90
2023-02-22T16:55:58.960Z,1.35
2023-02-22T16:58:28.492Z,2.20
2023-02-22T17:00:57.876Z,2.10
2023-02-22T17:03:26.418Z,1.80
2023-02-22T17:05:54.200Z,2.33
2023-02-22T17:08:22.149Z,2.00
2023-02-22T17:10:51.413Z,2.70
2023-02-22T17:13:24.936Z,2.35
2023-02-22T17:15:55.152Z,2.25
2023-02-22T17:18:25.020Z,2.58
2023-02-22T17:20:52.677Z,2.35
2023-02-22T17:23:20.784Z,2.63
2023-02-22T17:25:53.341Z,2.60
2023-02-22T17:28:20.987Z,3.53
2023-02-22T17:30:48.953Z,2.50
2023-02-22T17:33:17.679Z,2.08
2023-02-22T17:35:46.917Z,2.10
2023-02-22T17:38:18.356Z,2.72
2023-02-22T17:40:48.003Z,2.15
2023-02-22T17:43:16.252Z,2.25
2023-02-22T17:45:43.896Z,2.17
2023-02-22T17:48:11.384Z,2.05
2023-02-22T17:50:39.500Z,2.55
2023-02-22T17:53:10.845Z,1.45
2023-02-22T17:58:06.599Z,1.83
2023-02-22T18:00:36.131Z,2.30
2023-02-22T18:03:04.564Z,2.08
2023-02-22T18:05:33.182Z,2.20
2023-02-22T18:08:00.710Z,2.13
2023-02-22T18:10:29.570Z,2.67
2023-02-22T18:12:57.122Z,2.30
2023-02-22T18:15:28.216Z,1.98
2023-02-22T18:17:56.025Z,2.53
2023-02-22T18:20:30.976Z,2.63
2023-02-22T18:22:58.890Z,2.08
2023-02-22T18:25:27.022Z,2.30
2023-02-22T18:27:56.248Z,2.25
2023-02-22T18:30:24.209Z,2.22
2023-02-22T18:32:52.106Z,1.65
2023-02-22T18:35:19.735Z,1.77
2023-02-22T18:37:47.257Z,2.10
2023-02-22T18:40:14.771Z,2.20
2023-02-22T18:42:42.230Z,2.72
2023-02-22T18:45:11.238Z,2.03
2023-02-22T18:47:39.419Z,1.98
2023-02-22T18:50:07.425Z,2.08
2023-02-22T18:52:35.115Z,2.15
2023-02-22T18:55:02.586Z,2.42
2023-02-22T18:57:30.140Z,2.20
2023-02-22T18:59:57.775Z,2.53
2023-02-22T19:02:26.654Z,2.25
2023-02-22T19:04:54.233Z,1.95
2023-02-22T19:07:23.007Z,2.20
2023-02-22T19:09:51.216Z,2.10
2023-02-22T19:12:18.737Z,2.33
2023-02-22T19:14:46.982Z,2.28
2023-02-22T19:17:16.237Z,2.28
2023-02-22T19:19:45.120Z,2.47
2023-02-22T19:22:14.952Z,2.45
2023-02-22T19:24:42.593Z,2.40
2023-02-22T19:27:10.265Z,2.30
2023-02-22T19:29:38.857Z,2.20
2023-02-22T19:32:06.673Z,2.55
2023-02-22T19:34:34.596Z,3.08
2023-02-22T19:37:05.026Z,2.58
2023-02-22T19:39:33.346Z,2.45
2023-02-22T19:42:01.620Z,3.03
2023-02-22T19:44:29.123Z,2.83
2023-02-22T19:46:56.767Z,2.70
2023-02-22T19:51:58.253Z,2.17
2023-02-22T19:54:27.412Z,2.13
2023-02-22T19:56:58.163Z,2.42
